Terminal Aerodrome Forecast
Issued by NWS

Home | Current Version | Previous Version | Text Only | Print | Product List | Glossary On
Versions: 1 2 3 4 5 6 7 8 9 10 11 12 13 14 15
000
FTUS43 KFGF 180523
TAFTVF
TAF
KTVF 180523Z 1806/1906 23012KT P6SM BKN200
     FM181000 25010KT P6SM BKN030
     FM181200 26008KT P6SM SCT035
     FM190000 19007KT P6SM BKN200=

USA.gov is the U.S. government's official web portal to all federal, state and local government web resources and services.